Time;durP1;ratioP1;P1;durP2;ratioP2;P2;SDS_P1;SDS_P2;PMS_P1;PMS_P2;Temp;Humidity;BMP_temperature;BMP_pressure;BME280_temperature;BME280_humidity;BME280_pressure;Samples;Min_cycle;Max_cycle;Signal;HPM_P1;HPM_P2
2022/08/19 04:06:47;;;;;;;10.52;6.18;;;;;;;23.43;62.63;99879.37;6573102;26;20087;-87
2022/08/19 04:09:51;;;;;;;9.20;5.97;;;;;;;23.43;62.52;99884.03;6579857;27;33672;-86
2022/08/19 04:12:54;;;;;;;8.98;6.32;;;;;;;23.44;62.46;99871.97;6579526;27;33416;-87
2022/08/19 04:15:57;;;;;;;11.30;5.97;;;;;;;23.48;62.13;99889.53;6559696;27;33031;-87
2022/08/19 04:19:01;;;;;;;8.90;6.30;;;;;;;23.51;62.36;99895.31;6560101;27;32232;-87
2022/08/19 04:22:04;;;;;;;9.57;6.03;;;;;;;23.56;61.88;99904.66;6579436;27;33910;-87
2022/08/19 04:25:07;;;;;;;7.78;5.68;;;;;;;23.59;61.65;99904.09;6579571;27;34690;-86
2022/08/19 04:28:12;;;;;;;8.27;5.93;;;;;;;23.64;61.50;99906.84;6580121;27;33831;-90
2022/08/19 04:31:17;;;;;;;8.07;5.68;;;;;;;23.66;61.44;99904.63;6561500;27;32417;-90
2022/08/19 04:34:23;;;;;;;8.40;6.10;;;;;;;23.73;61.21;99899.72;6586211;27;33951;-90
2022/08/19 04:37:27;;;;;;;8.27;5.40;;;;;;;23.76;61.23;99897.25;6586728;27;33548;-87
2022/08/19 04:44:08;;;;;;;10.23;5.90;;;;;;;23.85;61.22;99905.75;6559861;27;33366;-87
2022/08/19 04:47:11;;;;;;;6.40;5.55;;;;;;;23.86;61.31;99906.56;6579866;27;33889;-87
2022/08/19 04:50:14;;;;;;;8.82;5.90;;;;;;;23.91;61.15;99914.81;6580153;27;34335;-87
2022/08/19 04:53:19;;;;;;;7.72;5.55;;;;;;;23.98;60.92;99909.84;6579520;27;33276;-88
2022/08/19 04:56:22;;;;;;;8.23;5.78;;;;;;;24.06;60.81;99912.03;6579108;27;34394;-87
2022/08/19 04:59:25;;;;;;;6.78;5.68;;;;;;;24.05;60.49;99902.16;6559469;27;32330;-87
2022/08/19 05:02:29;;;;;;;9.30;6.28;;;;;;;24.09;60.21;99908.72;6580299;27;34927;-87
2022/08/19 05:05:32;;;;;;;9.05;5.70;;;;;;;24.17;60.09;99908.16;6580820;27;33402;-87
2022/08/19 05:08:47;;;;;;;9.60;6.32;;;;;;;24.24;59.91;99899.59;6579696;27;33425;-87
2022/08/19 05:11:53;;;;;;;8.27;5.70;;;;;;;24.31;59.47;99910.34;6580493;27;33527;-87
2022/08/19 05:14:57;;;;;;;8.68;5.85;;;;;;;24.41;59.25;99907.53;6579993;27;33568;-88
2022/08/19 05:24:44;;;;;;;9.63;5.78;;;;;;;24.64;58.30;99909.66;6579980;27;33488;-87
2022/08/19 05:28:07;;;;;;;8.18;5.43;;;;;;;24.71;57.59;99903.03;6580719;27;33696;-92
2022/08/19 05:31:10;;;;;;;7.95;5.50;;;;;;;24.85;57.16;99915.06;6561096;27;33250;-88
2022/08/19 05:34:13;;;;;;;12.63;6.32;;;;;;;24.88;56.92;99906.22;6581869;27;33413;-88
2022/08/19 05:37:23;;;;;;;8.88;6.68;;;;;;;24.94;56.82;99907.03;6579022;27;33754;-87
2022/08/19 05:40:25;;;;;;;9.27;6.57;;;;;;;25.03;56.41;99906.12;6560029;27;33272;-88
2022/08/19 05:43:31;;;;;;;7.40;5.28;;;;;;;25.12;56.18;99904.41;6579515;27;33537;-88
2022/08/19 05:46:37;;;;;;;6.90;5.53;;;;;;;25.23;55.76;99907.13;6579435;27;33474;-88
2022/08/19 05:49:42;;;;;;;10.15;6.15;;;;;;;25.43;55.33;99909.75;6579015;27;33169;-88
2022/08/19 05:52:44;;;;;;;10.45;5.37;;;;;;;25.54;54.80;99905.78;6580253;27;33443;-88
2022/08/19 05:55:52;;;;;;;9.05;5.65;;;;;;;25.58;53.94;99906.03;6581902;27;33176;-88
2022/08/19 05:58:58;;;;;;;24.12;6.70;;;;;;;25.75;53.98;99908.38;6580292;27;33390;-87
2022/08/19 06:02:03;;;;;;;8.13;6.50;;;;;;;25.87;54.21;99908.81;6579246;27;33390;-88
2022/08/19 06:05:08;;;;;;;20.25;6.03;;;;;;;26.06;53.02;99911.66;6579030;27;34705;-88
2022/08/19 06:08:11;;;;;;;13.20;5.72;;;;;;;26.11;52.82;99911.59;6579443;27;33544;-87
2022/08/19 06:11:18;;;;;;;50.45;7.75;;;;;;;26.19;52.05;99905.44;6578606;27;33501;-88
2022/08/19 06:14:23;;;;;;;15.63;6.07;;;;;;;26.27;51.94;99914.19;6579022;27;33580;-88
2022/08/19 06:17:30;;;;;;;11.05;6.00;;;;;;;26.38;51.68;99908.25;6577847;27;33975;-87
2022/08/19 06:20:33;;;;;;;7.07;5.12;;;;;;;26.51;51.12;99903.19;6579149;27;33463;-87
2022/08/19 06:23:58;;;;;;;10.52;5.30;;;;;;;26.62;50.54;99905.50;6558934;27;32070;-88
2022/08/19 06:27:00;;;;;;;13.38;5.82;;;;;;;26.76;49.95;99904.78;6581069;27;33538;-88
2022/08/19 06:30:04;;;;;;;13.55;5.15;;;;;;;26.88;49.67;99918.97;6572951;27;32304;-87
2022/08/19 06:33:07;;;;;;;10.27;5.60;;;;;;;27.04;49.28;99906.59;6596708;27;33931;-87
2022/08/19 06:36:33;;;;;;;11.35;4.90;;;;;;;27.21;48.94;99902.50;6565060;27;34083;-88
2022/08/19 06:39:38;;;;;;;9.02;5.65;;;;;;;27.37;48.81;99890.88;6579383;27;34161;-88
2022/08/19 06:42:41;;;;;;;7.70;5.10;;;;;;;27.54;48.22;99889.50;6577933;27;33601;-91
2022/08/19 06:45:55;;;;;;;6.62;4.55;;;;;;;27.67;47.74;99894.28;6578690;27;33991;-89
2022/08/19 06:49:00;;;;;;;11.90;5.15;;;;;;;27.87;47.60;99892.28;6585555;27;33553;-88
2022/08/19 06:52:05;;;;;;;9.50;4.82;;;;;;;27.99;47.06;99893.44;6584000;27;33929;-89
2022/08/19 06:55:08;;;;;;;8.88;5.30;;;;;;;28.26;46.45;99889.84;6560672;27;32170;-88
2022/08/19 06:58:11;;;;;;;7.50;4.62;;;;;;;28.32;46.18;99896.13;6578326;27;32002;-88
2022/08/19 07:01:15;;;;;;;8.43;5.10;;;;;;;28.46;46.18;99885.88;6586454;27;33754;-87
2022/08/19 07:04:21;;;;;;;5.97;4.55;;;;;;;28.68;45.50;99892.63;6558516;27;32203;-88
2022/08/19 07:07:24;;;;;;;6.65;4.60;;;;;;;28.92;45.13;99893.16;6558449;27;33614;-88
2022/08/19 07:10:27;;;;;;;6.05;4.68;;;;;;;29.15;44.66;99891.28;6578567;27;33538;-88
2022/08/19 07:13:36;;;;;;;6.30;4.53;;;;;;;29.32;44.20;99900.88;6579287;27;33939;-88
2022/08/19 07:16:39;;;;;;;9.43;4.80;;;;;;;29.37;43.54;99901.56;6559027;27;32122;-88
2022/08/19 07:19:44;;;;;;;6.87;5.07;;;;;;;29.50;43.29;99912.91;6559834;27;33419;-88
2022/08/19 07:22:49;;;;;;;5.03;4.20;;;;;;;29.52;43.49;99916.19;6580045;27;34083;-88
2022/08/19 07:25:52;;;;;;;7.37;4.10;;;;;;;29.53;41.87;99918.63;6560621;27;32080;-89
2022/08/19 07:28:57;;;;;;;8.05;4.55;;;;;;;29.77;41.30;99917.50;6579972;27;34915;-88
2022/08/19 07:32:01;;;;;;;7.62;4.90;;;;;;;29.75;43.28;99911.47;6585636;27;33486;-88
2022/08/19 07:35:06;;;;;;;4.82;4.30;;;;;;;29.74;43.70;99918.97;6559147;27;32163;-89
2022/08/19 07:38:09;;;;;;;9.57;5.40;;;;;;;29.92;43.62;99916.28;6559668;27;33540;-89
2022/08/19 07:41:15;;;;;;;5.75;4.20;;;;;;;30.05;41.82;99913.41;6558964;27;33597;-89
2022/08/19 07:44:20;;;;;;;4.25;3.85;;;;;;;30.28;39.86;99905.06;6579796;27;33136;-88
2022/08/19 07:47:23;;;;;;;5.25;3.75;;;;;;;30.45;39.25;99902.34;6559814;27;31998;-88
2022/08/19 07:50:48;;;;;;;5.75;4.28;;;;;;;30.59;38.46;99901.37;6559869;27;31867;-89
2022/08/19 07:53:50;;;;;;;6.90;4.20;;;;;;;30.81;38.92;99892.97;6579623;27;33475;-88
2022/08/19 07:56:54;;;;;;;6.85;3.87;;;;;;;31.02;37.74;99903.44;6580604;27;33584;-88
2022/08/19 07:59:57;;;;;;;7.30;4.07;;;;;;;31.17;37.78;99891.81;6581068;27;33813;-88
2022/08/19 08:03:00;;;;;;;6.82;3.70;;;;;;;31.29;37.19;99899.50;6561709;27;31931;-89
2022/08/19 08:09:34;;;;;;;4.47;3.92;;;;;;;31.52;36.16;99897.38;6540152;27;33925;-92
2022/08/19 08:12:41;;;;;;;14.00;4.72;;;;;;;31.73;35.73;99891.94;6579846;27;33627;-89
2022/08/19 08:15:44;;;;;;;4.40;3.92;;;;;;;31.60;36.03;99896.56;6560459;27;32897;-89
2022/08/19 08:18:48;;;;;;;5.57;4.05;;;;;;;31.83;35.67;99895.19;6560131;27;33344;-89
2022/08/19 08:21:54;;;;;;;4.25;3.62;;;;;;;32.08;35.45;99892.66;6583144;27;33302;-89
2022/08/19 08:25:02;;;;;;;6.40;4.15;;;;;;;32.21;35.35;99894.41;6571327;26;32302;-89
2022/08/19 08:28:08;;;;;;;4.85;3.58;;;;;;;32.46;34.96;99905.78;6564003;27;32320;-89
2022/08/19 08:31:19;;;;;;;4.78;3.40;;;;;;;32.39;34.28;99909.06;6559421;27;32989;-88
2022/08/19 08:34:22;;;;;;;10.20;3.97;;;;;;;32.65;33.23;99897.00;6560523;27;32698;-88
2022/08/19 08:37:25;;;;;;;8.50;3.80;;;;;;;32.84;32.87;99893.75;6580699;27;33912;-90
2022/08/19 08:40:37;;;;;;;9.18;3.92;;;;;;;32.87;32.16;99895.84;6561048;27;32004;-89
2022/08/19 08:43:44;;;;;;;5.53;3.80;;;;;;;32.88;32.49;99895.53;6560347;27;31866;-89
2022/08/19 08:46:55;;;;;;;6.40;3.60;;;;;;;32.84;32.51;99894.56;6580870;27;33380;-89
2022/08/19 08:50:04;;;;;;;5.03;3.35;;;;;;;33.06;32.26;99898.22;6562885;27;31944;-90
2022/08/19 08:53:10;;;;;;;6.72;4.00;;;;;;;33.16;32.26;99883.84;6582730;26;33234;-89
2022/08/19 08:56:13;;;;;;;4.50;3.20;;;;;;;33.27;32.17;99879.47;6562021;27;32317;-89
2022/08/19 08:59:32;;;;;;;4.32;3.30;;;;;;;33.29;32.02;99874.38;6559939;27;32445;-89
2022/08/19 09:02:35;;;;;;;10.43;4.00;;;;;;;33.52;31.37;99857.25;6579975;27;33579;-89
2022/08/19 09:05:59;;;;;;;8.48;3.45;;;;;;;33.54;31.33;99852.94;6561133;27;32439;-89
2022/08/19 09:09:10;;;;;;;4.37;3.55;;;;;;;33.73;30.96;99862.78;6570834;27;32124;-89
2022/08/19 09:12:20;;;;;;;5.32;3.50;;;;;;;33.78;31.13;99859.75;6577183;27;33259;-89
2022/08/19 09:15:35;;;;;;;4.00;3.33;;;;;;;33.76;30.82;99868.47;6579424;27;33856;-89
2022/08/19 09:18:48;;;;;;;3.85;3.45;;;;;;;33.97;30.31;99856.41;6592518;27;33840;-89
2022/08/19 09:21:51;;;;;;;4.15;3.58;;;;;;;34.15;30.44;99863.44;6583310;27;33619;-89
2022/08/19 09:24:55;;;;;;;4.80;3.45;;;;;;;34.30;30.10;99868.31;6592133;27;33022;-89
2022/08/19 09:28:02;;;;;;;7.43;3.47;;;;;;;34.27;30.29;99857.03;6591620;27;34979;-88
2022/08/19 09:31:26;;;;;;;5.00;3.37;;;;;;;34.36;30.11;99859.69;6584268;27;34738;-88
2022/08/19 09:34:29;;;;;;;4.75;3.30;;;;;;;34.31;30.16;99855.13;6579789;27;33537;-88
2022/08/19 09:37:39;;;;;;;6.32;3.50;;;;;;;34.37;29.77;99842.59;6560877;27;33298;-88
2022/08/19 09:40:42;;;;;;;5.37;3.55;;;;;;;34.54;29.59;99844.28;6581577;27;34607;-88
2022/08/19 09:43:48;;;;;;;6.47;3.60;;;;;;;34.76;29.32;99838.22;6580229;27;34878;-87
2022/08/19 09:46:52;;;;;;;4.68;3.55;;;;;;;34.86;28.86;99833.28;6579490;27;33537;-88
2022/08/19 09:49:54;;;;;;;5.65;3.30;;;;;;;34.81;29.28;99825.13;6562682;27;31986;-86
2022/08/19 09:52:58;;;;;;;4.70;3.30;;;;;;;35.06;28.62;99821.13;6565713;27;33133;-86
2022/08/19 09:56:02;;;;;;;8.90;3.40;;;;;;;35.03;28.02;99826.59;6567838;27;33338;-87
2022/08/19 09:59:06;;;;;;;4.28;3.60;;;;;;;35.05;27.96;99813.91;6570402;27;33431;-87
2022/08/19 10:02:10;;;;;;;4.65;3.50;;;;;;;35.10;28.03;99818.41;6588931;27;33829;-86
2022/08/19 10:08:36;;;;;;;4.25;3.30;;;;;;;35.13;27.82;99798.94;6588476;27;33475;-87
2022/08/19 10:11:41;;;;;;;3.85;3.25;;;;;;;35.63;27.21;99802.31;6568756;27;32088;-86
2022/08/19 10:14:54;;;;;;;9.68;3.22;;;;;;;35.80;26.87;99801.09;6589850;27;34074;-87
2022/08/19 10:17:59;;;;;;;79.87;10.50;;;;;;;35.75;26.96;99807.81;6585734;27;33683;-91
2022/08/19 10:21:13;;;;;;;6.40;3.03;;;;;;;35.88;26.66;99802.91;6561558;27;33265;-91
2022/08/19 10:24:17;;;;;;;8.57;3.47;;;;;;;35.97;26.83;99805.53;6561666;26;34279;-87
2022/08/19 10:27:20;;;;;;;4.93;3.45;;;;;;;36.01;26.70;99795.19;6587753;27;33223;-89
2022/08/19 10:30:23;;;;;;;6.30;2.87;;;;;;;36.33;26.31;99791.22;6562583;27;32188;-89
2022/08/19 10:33:27;;;;;;;13.27;3.20;;;;;;;36.28;26.01;99791.50;6560063;27;33491;-87
2022/08/19 10:36:51;;;;;;;6.18;3.28;;;;;;;36.74;26.11;99788.94;6582144;27;34469;-87
2022/08/19 10:40:05;;;;;;;4.80;3.00;;;;;;;36.98;25.41;99789.81;6582291;27;34160;-88
2022/08/19 10:43:08;;;;;;;5.75;3.10;;;;;;;37.20;24.87;99785.44;6563815;27;32409;-87
2022/08/19 10:46:15;;;;;;;8.73;3.10;;;;;;;37.31;24.81;99788.44;6585805;27;33300;-87
2022/08/19 10:49:21;;;;;;;15.27;3.95;;;;;;;37.34;25.13;99779.28;6596919;26;33735;-87
2022/08/19 10:52:33;;;;;;;4.07;2.80;;;;;;;37.36;24.59;99788.16;6573438;27;32104;-87
2022/08/19 10:59:03;;;;;;;5.95;3.97;;;;;;;37.83;24.31;99787.78;6579607;27;33852;-87
2022/08/19 11:02:09;;;;;;;5.20;2.83;;;;;;;38.04;24.02;99786.53;6579207;27;33199;-87
2022/08/19 11:05:14;;;;;;;3.62;3.25;;;;;;;38.49;23.42;99781.97;6559576;27;32205;-87
2022/08/19 11:08:17;;;;;;;18.33;3.40;;;;;;;38.69;23.10;99788.25;6583723;27;34149;-87
2022/08/19 11:11:25;;;;;;;;;;;;;;;38.79;22.76;99784.78;6583510;27;34535;-87
2022/08/19 11:14:30;;;;;;;7.68;2.85;;;;;;;38.63;22.70;99782.16;6580567;27;33327;-88
2022/08/19 11:17:35;;;;;;;5.78;3.28;;;;;;;39.29;22.24;99776.91;6580130;27;34395;-88
2022/08/19 11:20:39;;;;;;;3.87;3.12;;;;;;;39.59;22.05;99788.09;6561454;27;33569;-88
2022/08/19 11:23:41;;;;;;;3.55;2.60;;;;;;;39.62;22.14;99780.87;6586820;27;33919;-91
2022/08/19 11:26:45;;;;;;;13.23;3.30;;;;;;;39.20;22.23;99782.06;6570698;27;33012;-92
2022/08/19 11:29:48;;;;;;;6.43;2.92;;;;;;;39.86;21.64;99777.47;6580896;27;34849;-92
2022/08/19 11:32:51;;;;;;;6.30;3.30;;;;;;;40.48;20.81;99773.03;6579954;27;33506;-90
2022/08/19 11:35:54;;;;;;;14.10;3.95;;;;;;;40.85;20.26;99780.47;6593057;26;33856;-90
2022/08/19 11:38:56;;;;;;;4.87;3.53;;;;;;;41.33;19.54;99766.09;6569575;27;32845;-90
2022/08/19 11:42:02;;;;;;;3.97;2.75;;;;;;;42.00;19.20;99782.28;6559013;27;32121;-89
2022/08/19 11:45:05;;;;;;;7.15;3.60;;;;;;;42.91;18.33;99775.16;6558419;27;32352;-89
2022/08/19 11:48:08;;;;;;;9.75;3.65;;;;;;;43.79;17.26;99764.47;6578962;27;33226;-89
2022/08/19 11:51:15;;;;;;;5.35;3.37;;;;;;;44.16;16.89;99762.09;6579438;27;34028;-89
2022/08/19 11:54:18;;;;;;;4.10;2.75;;;;;;;44.64;16.64;99756.28;6579119;27;33491;-89
2022/08/19 11:57:21;;;;;;;3.45;2.72;;;;;;;45.03;15.91;99761.44;6579422;27;33214;-89
2022/08/19 12:00:24;;;;;;;6.05;3.00;;;;;;;44.81;16.20;99760.13;6558272;27;32317;-89
2022/08/19 12:03:27;;;;;;;4.80;3.17;;;;;;;45.73;15.28;99744.97;6559253;27;32281;-89
2022/08/19 12:06:33;;;;;;;7.12;3.00;;;;;;;46.21;14.94;99753.00;6566982;27;33647;-89
2022/08/19 12:09:38;;;;;;;5.07;3.10;;;;;;;46.40;14.76;99745.75;6579578;27;34471;-89
2022/08/19 12:12:45;;;;;;;4.80;3.10;;;;;;;47.29;13.93;99728.69;6578155;27;33506;-89
2022/08/19 12:15:58;;;;;;;6.62;4.10;;;;;;;46.91;14.24;99739.78;6578974;27;34227;-88
2022/08/19 12:19:03;;;;;;;6.40;3.47;;;;;;;46.92;14.27;99744.22;6558740;27;33050;-86
2022/08/19 12:22:07;;;;;;;12.20;3.80;;;;;;;46.71;14.38;99729.22;6558776;27;31649;-86
2022/08/19 12:25:11;;;;;;;7.70;4.00;;;;;;;45.47;15.33;99728.28;6562141;27;33649;-88
2022/08/19 12:28:14;;;;;;;11.20;3.65;;;;;;;45.06;15.69;99731.38;6581581;27;34010;-86
2022/08/19 12:31:19;;;;;;;3.42;3.03;;;;;;;43.95;16.37;99734.78;6581214;27;33736;-87
2022/08/19 12:34:22;;;;;;;8.65;4.62;;;;;;;43.18;16.96;99735.78;6581801;27;34303;-87
2022/08/19 12:37:25;;;;;;;13.57;6.90;;;;;;;43.90;16.52;99747.34;6561061;27;32695;-89
2022/08/19 12:40:28;;;;;;;7.75;4.22;;;;;;;44.68;16.05;99736.34;6581189;27;33217;-87
2022/08/19 12:43:31;;;;;;;8.10;4.18;;;;;;;45.18;15.31;99732.84;6580013;27;33515;-87
2022/08/19 12:46:34;;;;;;;5.25;4.53;;;;;;;45.64;15.41;99737.78;6563313;27;32330;-86
2022/08/19 12:49:40;;;;;;;5.50;3.95;;;;;;;45.87;14.89;99731.28;6587587;27;34837;-87
2022/08/19 12:52:57;;;;;;;5.47;4.47;;;;;;;45.16;15.97;99718.25;6560691;27;31709;-87
2022/08/19 12:56:00;;;;;;;7.75;4.40;;;;;;;45.38;15.43;99713.03;6559768;27;32900;-87
2022/08/19 12:59:04;;;;;;;5.75;4.90;;;;;;;45.50;15.27;99703.87;6560072;27;33150;-87
2022/08/19 13:02:07;;;;;;;9.10;4.97;;;;;;;46.90;14.06;99706.84;6566637;27;33004;-87
2022/08/19 13:05:15;;;;;;;13.48;5.72;;;;;;;47.25;13.53;99693.78;6578998;27;33510;-87
2022/08/19 13:08:18;;;;;;;54.95;8.20;;;;;;;48.43;12.60;99701.22;6579195;27;33903;-91
2022/08/19 13:11:24;;;;;;;8.63;5.57;;;;;;;47.96;12.98;99696.03;6579307;27;34848;-90
2022/08/19 13:14:26;;;;;;;13.87;6.10;;;;;;;45.16;14.94;99707.69;6558944;27;32835;-91
2022/08/19 13:17:29;;;;;;;9.00;6.10;;;;;;;44.83;15.44;99705.75;6559609;27;32220;-88
2022/08/19 13:20:32;;;;;;;10.65;6.25;;;;;;;45.31;15.00;99708.25;6560040;27;32275;-87
2022/08/19 13:23:35;;;;;;;12.05;5.47;;;;;;;45.01;15.58;99689.22;6558878;27;33737;-87
2022/08/19 13:26:38;;;;;;;6.78;5.50;;;;;;;46.02;14.60;99692.00;6560599;27;32705;-87
2022/08/19 13:33:10;;;;;;;10.80;5.37;;;;;;;46.08;14.31;99680.91;6580268;27;34316;-88
2022/08/19 13:36:13;;;;;;;8.45;5.93;;;;;;;45.90;14.56;99681.25;6579403;27;34036;-88
2022/08/19 13:39:16;;;;;;;8.77;4.78;;;;;;;45.16;15.22;99689.81;6569059;27;32179;-87
2022/08/19 13:42:19;;;;;;;7.62;5.05;;;;;;;46.02;14.37;99686.31;6565574;27;32235;-87
2022/08/19 13:45:24;;;;;;;11.25;4.70;;;;;;;45.59;14.69;99681.41;6579589;27;33354;-87
2022/08/19 13:48:27;;;;;;;4.90;3.77;;;;;;;44.25;15.71;99677.25;6579732;27;34106;-86
2022/08/19 13:51:33;;;;;;;7.32;3.33;;;;;;;43.60;16.31;99672.28;6559749;27;32403;-86
2022/08/19 13:54:35;;;;;;;8.10;2.90;;;;;;;44.79;15.41;99671.72;6579443;27;34685;-86
2022/08/19 13:57:38;;;;;;;5.05;2.90;;;;;;;43.98;16.18;99663.00;6583349;27;33365;-87
2022/08/19 14:00:44;;;;;;;5.03;3.00;;;;;;;44.05;15.93;99663.72;6560148;27;32902;-87
2022/08/19 14:03:48;;;;;;;4.90;2.90;;;;;;;43.72;16.45;99658.81;6560835;27;31881;-87
2022/08/19 14:06:50;;;;;;;6.47;3.22;;;;;;;44.34;15.75;99654.88;6582533;27;33410;-88
2022/08/19 14:09:53;;;;;;;7.97;3.53;;;;;;;44.06;16.13;99651.16;6560146;27;32326;-87
2022/08/19 14:12:58;;;;;;;3.70;3.05;;;;;;;44.01;15.85;99650.81;6559721;27;31977;-87
2022/08/19 14:16:01;;;;;;;10.45;3.78;;;;;;;43.10;17.37;99661.34;6561789;27;33420;-87
2022/08/19 14:19:04;;;;;;;12.35;2.75;;;;;;;40.97;20.77;99693.38;6560427;27;32425;-87
2022/08/19 14:22:07;;;;;;;13.55;3.20;;;;;;;39.97;22.43;99692.97;6580393;27;33514;-87
2022/08/19 14:25:16;;;;;;;5.25;2.70;;;;;;;38.82;24.63;99699.59;6559533;27;33730;-86
2022/08/19 14:28:19;;;;;;;10.32;3.17;;;;;;;37.51;26.59;99694.56;6578473;27;33539;-86
2022/08/19 14:31:27;;;;;;;11.12;3.03;;;;;;;37.17;27.04;99697.16;6578750;27;33979;-87
2022/08/19 14:34:33;;;;;;;6.65;2.60;;;;;;;36.36;28.33;99708.38;6580686;27;33098;-86
2022/08/19 14:37:36;;;;;;;5.85;2.78;;;;;;;36.14;28.79;99706.28;6560116;27;32316;-87
2022/08/19 14:40:48;;;;;;;6.03;3.00;;;;;;;35.94;29.19;99699.78;6562344;27;31949;-87
2022/08/19 14:43:52;;;;;;;5.93;2.75;;;;;;;36.12;29.19;99697.41;6570102;27;32857;-87
2022/08/19 14:46:55;;;;;;;6.07;2.40;;;;;;;35.99;29.37;99696.72;6590546;27;33305;-87
2022/08/19 14:49:59;;;;;;;20.55;3.47;;;;;;;35.19;30.47;99704.34;6566094;27;33762;-87
2022/08/19 14:53:25;;;;;;;7.45;2.55;;;;;;;34.37;31.57;99705.63;6571975;27;20072;-87
2022/08/19 14:56:30;;;;;;;10.00;2.92;;;;;;;34.15;32.06;99715.34;6570267;27;34604;-87
2022/08/19 14:59:35;;;;;;;7.35;2.20;;;;;;;33.94;32.37;99718.25;6562997;27;33905;-87
2022/08/19 15:02:38;;;;;;;5.72;1.92;;;;;;;33.62;31.61;99722.81;6532788;27;32284;-87
2022/08/19 15:05:41;;;;;;;15.55;3.17;;;;;;;33.47;31.57;99732.66;6552208;27;33611;-86
2022/08/19 15:08:44;;;;;;;7.45;2.42;;;;;;;33.11;31.85;99733.41;6552252;27;34167;-86
2022/08/19 15:11:49;;;;;;;8.52;2.60;;;;;;;32.92;31.59;99747.84;6554172;27;33702;-87
2022/08/19 15:14:52;;;;;;;4.28;2.20;;;;;;;32.98;31.54;99752.06;6535724;27;33346;-86
2022/08/19 15:18:02;;;;;;;5.85;2.17;;;;;;;32.66;30.79;99765.63;6558202;27;33596;-86
2022/08/19 15:21:05;;;;;;;9.52;2.20;;;;;;;32.48;30.68;99770.53;6559716;27;32504;-86
2022/08/19 15:24:08;;;;;;;5.70;1.62;;;;;;;32.32;30.67;99779.81;6579474;27;33934;-87
2022/08/19 15:27:12;;;;;;;6.70;2.25;;;;;;;32.28;31.05;99791.62;6559809;27;32369;-86
2022/08/19 15:30:21;;;;;;;4.75;2.50;;;;;;;32.10;31.51;99803.22;6559649;27;31807;-87
